createdAt,value
2018-05-24T00:00:45.600Z,18.92
2018-05-24T00:03:13.143Z,18.89
2018-05-24T00:05:40.659Z,18.84
2018-05-24T00:08:08.192Z,18.85
2018-05-24T00:10:35.816Z,18.83
2018-05-24T00:13:03.339Z,18.87
2018-05-24T00:15:30.872Z,18.85
2018-05-24T00:17:58.496Z,18.81
2018-05-24T00:20:26.040Z,18.77
2018-05-24T00:22:53.616Z,18.74
2018-05-24T00:25:21.142Z,18.73
2018-05-24T00:27:48.674Z,18.65
2018-05-24T00:30:16.297Z,18.70
2018-05-24T00:32:43.860Z,18.71
2018-05-24T00:35:11.419Z,18.57
2018-05-24T00:37:38.942Z,18.58
2018-05-24T00:40:06.537Z,18.61
2018-05-24T00:42:34.060Z,18.58
2018-05-24T00:45:01.660Z,18.60
2018-05-24T00:47:29.188Z,18.57
2018-05-24T00:49:56.772Z,18.55
2018-05-24T00:52:24.301Z,18.53
2018-05-24T00:54:51.891Z,18.49
2018-05-24T00:57:19.419Z,18.46
2018-05-24T00:59:46.980Z,18.38
2018-05-24T01:02:14.576Z,18.42
2018-05-24T01:04:42.136Z,18.37
2018-05-24T01:07:09.661Z,18.36
2018-05-24T01:09:37.216Z,18.33
2018-05-24T01:12:04.890Z,18.24
2018-05-24T01:14:32.495Z,18.28
2018-05-24T01:17:00.036Z,18.22
2018-05-24T01:19:27.568Z,18.19
2018-05-24T01:21:55.085Z,18.24
2018-05-24T01:24:22.615Z,18.21
2018-05-24T01:26:50.157Z,18.12
2018-05-24T01:29:17.688Z,18.13
2018-05-24T01:31:45.212Z,18.23
2018-05-24T01:34:12.866Z,18.07
2018-05-24T01:36:52.176Z,18.07
2018-05-24T01:39:19.725Z,17.97
2018-05-24T01:41:47.244Z,18.02
2018-05-24T01:44:14.792Z,18.05
2018-05-24T01:46:42.312Z,17.98
2018-05-24T01:49:09.844Z,17.92
2018-05-24T01:51:37.433Z,17.90
2018-05-24T01:54:04.991Z,17.93
2018-05-24T01:56:32.504Z,17.89
2018-05-24T01:59:00.110Z,17.88
2018-05-24T02:01:27.699Z,17.85
2018-05-24T02:03:55.275Z,17.83
2018-05-24T02:06:22.884Z,17.80
2018-05-24T02:08:50.410Z,17.76
2018-05-24T02:11:18.032Z,17.69
2018-05-24T02:13:45.560Z,17.70
2018-05-24T02:16:13.085Z,17.63
2018-05-24T02:18:40.611Z,17.66
2018-05-24T02:21:08.151Z,17.68
2018-05-24T02:23:35.683Z,17.59
2018-05-24T02:26:03.227Z,17.43
2018-05-24T02:28:30.849Z,17.56
2018-05-24T02:30:58.413Z,17.53
2018-05-24T02:33:25.935Z,17.45
2018-05-24T02:35:53.600Z,17.40
2018-05-24T02:38:21.090Z,17.38
2018-05-24T02:40:48.655Z,17.32
2018-05-24T02:43:16.178Z,17.45
2018-05-24T02:45:43.768Z,17.39
2018-05-24T02:48:11.333Z,17.37
2018-05-24T02:50:38.856Z,17.31
2018-05-24T02:53:06.417Z,17.31
2018-05-24T02:55:33.950Z,17.24
2018-05-24T02:58:01.571Z,17.20
2018-05-24T03:00:29.552Z,17.21
2018-05-24T03:02:57.072Z,17.24
2018-05-24T03:05:24.593Z,17.15
2018-05-24T03:07:52.123Z,17.10
2018-05-24T03:10:19.786Z,17.02
2018-05-24T03:12:47.447Z,17.05
2018-05-24T03:15:14.969Z,17.00
2018-05-24T03:17:42.501Z,17.12
2018-05-24T03:20:10.019Z,16.92
2018-05-24T03:22:37.545Z,16.97
2018-05-24T03:25:05.213Z,16.96
2018-05-24T03:27:32.797Z,16.97
2018-05-24T03:30:00.335Z,16.98
2018-05-24T03:32:27.860Z,16.97
2018-05-24T03:34:55.493Z,17.03
2018-05-24T03:37:23.042Z,16.98
2018-05-24T03:39:51.010Z,16.94
2018-05-24T03:42:18.537Z,16.94
2018-05-24T03:44:46.140Z,16.95
2018-05-24T03:47:13.666Z,17.01
2018-05-24T03:49:41.196Z,16.95
2018-05-24T03:52:08.789Z,17.03
2018-05-24T03:54:36.344Z,17.00
2018-05-24T03:57:03.988Z,16.98
2018-05-24T04:02:54.040Z,17.05
2018-05-24T04:05:21.571Z,16.99
2018-05-24T04:07:49.199Z,17.01
2018-05-24T04:10:16.720Z,17.15
2018-05-24T04:12:44.280Z,17.17
2018-05-24T04:15:11.803Z,17.23
2018-05-24T04:17:39.340Z,17.02
2018-05-24T04:20:06.904Z,17.05
2018-05-24T04:22:34.524Z,17.03
2018-05-24T04:25:02.040Z,17.07
2018-05-24T04:27:29.612Z,17.04
2018-05-24T04:29:57.135Z,16.97
2018-05-24T04:32:24.701Z,17.06
2018-05-24T04:34:52.322Z,17.04
2018-05-24T04:37:19.936Z,17.14
2018-05-24T04:39:47.467Z,17.22
2018-05-24T04:42:15.561Z,17.31
2018-05-24T04:44:43.104Z,17.24
2018-05-24T04:47:10.632Z,17.28
2018-05-24T04:49:38.154Z,17.32
2018-05-24T04:52:05.785Z,17.25
2018-05-24T04:54:33.313Z,17.43
2018-05-24T04:57:00.845Z,17.41
2018-05-24T04:59:28.363Z,17.31
2018-05-24T05:01:55.999Z,17.28
2018-05-24T05:04:23.654Z,17.27
2018-05-24T05:06:51.179Z,17.39
2018-05-24T05:09:18.775Z,17.43
2018-05-24T05:11:46.295Z,17.56
2018-05-24T05:14:13.898Z,17.53
2018-05-24T05:16:41.421Z,17.46
2018-05-24T05:19:08.953Z,17.33
2018-05-24T05:21:36.478Z,17.55
2018-05-24T05:24:04.048Z,17.70
2018-05-24T05:26:31.701Z,17.71
2018-05-24T05:28:59.259Z,17.76
2018-05-24T05:31:26.781Z,17.74
2018-05-24T05:33:54.308Z,17.93
2018-05-24T05:36:21.934Z,17.82
2018-05-24T05:38:49.456Z,17.96
2018-05-24T05:41:17.074Z,17.93
2018-05-24T05:43:44.618Z,17.98
2018-05-24T05:46:12.176Z,18.09
2018-05-24T05:48:39.749Z,18.22
2018-05-24T05:51:07.280Z,18.09
2018-05-24T05:53:34.808Z,18.09
2018-05-24T05:56:02.337Z,18.09
2018-05-24T05:58:29.874Z,18.17
2018-05-24T06:00:57.403Z,18.23
2018-05-24T06:03:24.929Z,18.29
2018-05-24T06:05:52.555Z,18.42
2018-05-24T06:08:20.085Z,18.71
2018-05-24T06:10:47.684Z,19.24
2018-05-24T06:13:15.335Z,19.24
2018-05-24T06:15:42.863Z,19.21
2018-05-24T06:18:10.460Z,19.35
2018-05-24T06:20:38.112Z,19.21
2018-05-24T06:23:05.631Z,19.50
2018-05-24T06:25:33.177Z,19.26
2018-05-24T06:28:00.795Z,19.38
2018-05-24T06:30:28.360Z,19.76
2018-05-24T06:32:56.094Z,19.80
2018-05-24T06:35:24.165Z,19.89
2018-05-24T06:37:51.756Z,20.12
2018-05-24T06:40:19.313Z,19.86
2018-05-24T06:42:46.857Z,19.72
2018-05-24T06:45:14.399Z,20.13
2018-05-24T06:47:42.013Z,20.32
2018-05-24T06:50:09.551Z,20.93
2018-05-24T06:52:37.086Z,21.10
2018-05-24T06:55:04.600Z,21.67
2018-05-24T06:57:32.234Z,22.19
2018-05-24T06:59:59.893Z,22.25
2018-05-24T07:02:27.349Z,22.84
2018-05-24T07:04:54.879Z,22.10
2018-05-24T07:07:22.489Z,22.81
2018-05-24T07:09:50.074Z,23.30
2018-05-24T07:12:17.697Z,22.83
2018-05-24T07:14:45.224Z,23.35
2018-05-24T07:17:12.757Z,23.86
2018-05-24T07:19:40.394Z,24.27
2018-05-24T07:22:09.783Z,24.39
2018-05-24T07:24:38.264Z,24.57
2018-05-24T07:27:05.875Z,24.20
2018-05-24T07:29:33.462Z,23.33
2018-05-24T07:32:01.068Z,23.70
2018-05-24T07:34:28.693Z,23.70
2018-05-24T07:36:57.016Z,23.81
2018-05-24T07:39:24.661Z,23.76
2018-05-24T07:41:52.205Z,24.34
2018-05-24T07:44:19.767Z,24.04
2018-05-24T07:46:47.326Z,24.30
2018-05-24T07:49:17.223Z,23.78
2018-05-24T07:51:47.538Z,24.35
2018-05-24T07:54:15.064Z,24.83
2018-05-24T07:56:42.686Z,24.81
2018-05-24T07:59:10.343Z,24.67
2018-05-24T08:01:37.881Z,24.57
2018-05-24T08:04:05.414Z,24.63
2018-05-24T08:06:40.615Z,25.35
2018-05-24T08:09:08.166Z,25.77
2018-05-24T08:11:35.712Z,26.28
2018-05-24T08:14:03.285Z,26.38
2018-05-24T08:16:30.818Z,28.25
2018-05-24T08:18:58.336Z,29.11
2018-05-24T08:21:25.967Z,30.26
2018-05-24T08:23:53.526Z,29.95
2018-05-24T08:26:21.045Z,29.01
2018-05-24T08:28:48.572Z,30.69
2018-05-24T08:31:16.210Z,31.42
2018-05-24T08:33:43.731Z,32.33
2018-05-24T08:36:11.325Z,31.97
2018-05-24T08:38:38.853Z,34.23
2018-05-24T08:41:06.377Z,32.24
2018-05-24T08:43:34.012Z,32.15
2018-05-24T08:46:01.551Z,33.76
2018-05-24T08:48:29.085Z,32.58
2018-05-24T08:50:56.686Z,31.23
2018-05-24T08:53:24.268Z,32.03
2018-05-24T08:55:52.076Z,33.21
2018-05-24T08:58:19.640Z,32.66
2018-05-24T09:00:47.160Z,33.43
2018-05-24T09:03:14.690Z,33.20
2018-05-24T09:05:42.251Z,34.06
2018-05-24T09:08:09.774Z,34.46
2018-05-24T09:10:37.371Z,35.10
2018-05-24T09:13:04.931Z,32.90
2018-05-24T09:15:32.464Z,33.35
2018-05-24T09:17:59.983Z,33.92
2018-05-24T09:20:27.524Z,33.85
2018-05-24T09:22:55.062Z,32.29
2018-05-24T09:25:22.597Z,32.59
2018-05-24T09:27:50.117Z,31.81
2018-05-24T09:30:17.747Z,32.45
2018-05-24T09:32:45.309Z,32.14
2018-05-24T09:35:12.853Z,30.14
2018-05-24T09:37:40.523Z,29.22
2018-05-24T09:40:08.097Z,29.56
2018-05-24T09:42:35.650Z,28.65
2018-05-24T09:45:03.175Z,30.90
2018-05-24T09:47:30.827Z,30.89
2018-05-24T09:49:58.437Z,30.42
2018-05-24T09:52:26.119Z,30.50
2018-05-24T09:54:53.743Z,29.96
2018-05-24T09:57:21.272Z,28.03
2018-05-24T09:59:48.809Z,28.37
2018-05-24T10:02:16.335Z,28.74
2018-05-24T10:04:44.107Z,30.29
2018-05-24T10:07:11.553Z,30.02
2018-05-24T10:09:39.126Z,29.95
2018-05-24T10:12:06.660Z,30.53
2018-05-24T10:14:34.240Z,30.24
2018-05-24T10:17:01.780Z,30.17
2018-05-24T10:19:29.356Z,31.73
2018-05-24T10:21:56.887Z,31.31
2018-05-24T10:24:24.479Z,29.68
2018-05-24T10:26:52.029Z,29.35
2018-05-24T10:29:19.570Z,28.88
2018-05-24T10:31:47.149Z,28.54
2018-05-24T10:34:14.718Z,29.06
2018-05-24T10:36:42.280Z,28.03
2018-05-24T10:39:09.808Z,27.42
2018-05-24T10:41:37.397Z,27.59
2018-05-24T10:44:04.931Z,27.80
2018-05-24T10:46:32.517Z,27.42
2018-05-24T10:49:00.043Z,26.83
2018-05-24T10:51:27.567Z,26.63
2018-05-24T10:53:55.096Z,26.28
2018-05-24T10:56:22.654Z,26.03
2018-05-24T10:58:50.184Z,25.98
2018-05-24T11:01:17.779Z,26.16
2018-05-24T11:03:45.299Z,26.31
2018-05-24T11:06:12.897Z,25.93
2018-05-24T11:08:40.559Z,26.10
2018-05-24T11:11:08.113Z,26.04
2018-05-24T11:13:35.677Z,25.84
2018-05-24T11:16:03.246Z,25.88
2018-05-24T11:18:30.779Z,25.76
2018-05-24T11:20:58.310Z,25.81
2018-05-24T11:23:25.841Z,25.62
2018-05-24T11:25:53.633Z,25.38
2018-05-24T11:28:21.165Z,25.89
2018-05-24T11:30:48.715Z,25.66
2018-05-24T11:33:16.365Z,25.45
2018-05-24T11:35:44.029Z,25.45
2018-05-24T11:38:11.584Z,25.40
2018-05-24T11:40:39.288Z,25.25
2018-05-24T11:43:06.914Z,25.09
2018-05-24T11:45:34.400Z,25.33
2018-05-24T11:48:01.954Z,25.38
2018-05-24T11:50:29.483Z,25.05
2018-05-24T11:52:57.017Z,24.98
2018-05-24T11:55:24.532Z,25.35
2018-05-24T11:57:52.216Z,25.67
2018-05-24T12:00:19.752Z,25.19
2018-05-24T12:02:47.308Z,25.27
2018-05-24T12:05:14.874Z,25.06
2018-05-24T12:07:42.691Z,25.15
2018-05-24T12:10:10.409Z,25.31
2018-05-24T12:12:38.067Z,25.32
2018-05-24T12:15:05.704Z,25.71
2018-05-24T12:17:33.265Z,25.48
2018-05-24T12:20:00.792Z,25.55
2018-05-24T12:22:28.330Z,25.68
2018-05-24T12:24:55.910Z,25.58
2018-05-24T12:27:23.447Z,25.45
2018-05-24T12:29:50.980Z,25.37
2018-05-24T12:32:18.504Z,25.36
2018-05-24T12:34:46.034Z,25.56
2018-05-24T12:37:13.592Z,25.53
2018-05-24T12:39:41.125Z,25.51
2018-05-24T12:42:08.656Z,25.58
2018-05-24T12:44:36.233Z,25.54
2018-05-24T12:47:03.779Z,25.36
2018-05-24T12:49:31.386Z,25.51
2018-05-24T12:51:58.925Z,25.40
2018-05-24T12:54:26.562Z,25.30
2018-05-24T12:56:54.165Z,25.33
2018-05-24T12:59:21.751Z,25.41
2018-05-24T13:01:49.312Z,25.22
2018-05-24T13:04:16.847Z,25.31
2018-05-24T13:06:44.373Z,25.36
2018-05-24T13:09:11.920Z,25.42
2018-05-24T13:11:39.664Z,25.55
2018-05-24T13:14:07.770Z,25.51
2018-05-24T13:16:35.444Z,25.55
2018-05-24T13:19:03.077Z,25.50
2018-05-24T13:21:30.637Z,25.49
2018-05-24T13:23:58.219Z,25.34
2018-05-24T13:26:25.735Z,25.55
2018-05-24T13:28:53.252Z,25.58
2018-05-24T13:31:20.785Z,25.66
2018-05-24T13:33:48.317Z,25.69
2018-05-24T13:36:15.836Z,25.78
2018-05-24T13:38:43.425Z,25.80
2018-05-24T13:41:11.021Z,25.81
2018-05-24T13:43:38.558Z,25.84
2018-05-24T13:46:06.196Z,25.91
2018-05-24T13:48:33.807Z,25.99
2018-05-24T13:51:01.331Z,25.86
2018-05-24T13:53:28.855Z,25.83
2018-05-24T13:55:56.379Z,25.81
2018-05-24T13:58:23.898Z,25.84
2018-05-24T14:00:51.541Z,25.82
2018-05-24T14:03:19.096Z,25.84
2018-05-24T14:05:47.418Z,25.88
2018-05-24T14:08:15.276Z,25.89
2018-05-24T14:10:42.870Z,25.69
2018-05-24T14:13:10.429Z,25.65
2018-05-24T14:15:37.992Z,25.80
2018-05-24T14:18:05.515Z,25.80
2018-05-24T14:20:33.032Z,25.81
2018-05-24T14:23:00.667Z,25.81
2018-05-24T14:25:28.264Z,25.79
2018-05-24T14:27:55.889Z,25.83
2018-05-24T14:30:24.076Z,25.79
2018-05-24T14:32:51.598Z,25.62
2018-05-24T14:35:19.127Z,25.74
2018-05-24T14:37:46.663Z,25.67
2018-05-24T14:40:14.315Z,25.74
2018-05-24T14:42:41.866Z,25.76
2018-05-24T14:45:09.495Z,25.82
2018-05-24T14:47:37.088Z,25.81
2018-05-24T14:50:04.649Z,25.80
2018-05-24T14:52:32.177Z,25.73
2018-05-24T14:54:59.770Z,25.82
2018-05-24T14:57:27.291Z,25.91
2018-05-24T14:59:54.859Z,25.80
2018-05-24T15:02:22.446Z,25.79
2018-05-24T15:04:50.024Z,25.82
2018-05-24T15:07:17.552Z,25.83
2018-05-24T15:09:45.076Z,25.61
2018-05-24T15:12:12.628Z,25.70
2018-05-24T15:14:40.163Z,25.68
2018-05-24T15:17:07.806Z,25.66
2018-05-24T15:19:35.333Z,25.72
2018-05-24T15:22:02.848Z,25.76
2018-05-24T15:24:30.379Z,25.68
2018-05-24T15:26:57.953Z,25.80
2018-05-24T15:29:25.644Z,25.76
2018-05-24T15:31:53.273Z,25.73
2018-05-24T15:34:20.828Z,25.74
2018-05-24T15:36:48.387Z,25.68
2018-05-24T15:39:15.949Z,25.63
2018-05-24T15:41:43.475Z,25.58
2018-05-24T15:44:11.041Z,25.61
2018-05-24T15:46:38.571Z,25.62
2018-05-24T15:49:06.184Z,25.59
2018-05-24T15:51:33.753Z,25.55
2018-05-24T15:54:01.271Z,25.55
2018-05-24T15:56:28.876Z,25.63
2018-05-24T15:58:56.432Z,25.59
2018-05-24T16:01:23.992Z,25.48
2018-05-24T16:03:51.521Z,25.53
2018-05-24T16:06:19.039Z,25.54
2018-05-24T16:08:46.669Z,25.42
2018-05-24T16:11:14.208Z,25.45
2018-05-24T16:13:41.736Z,25.40
2018-05-24T16:16:09.272Z,25.46
2018-05-24T16:18:36.826Z,25.50
2018-05-24T16:21:04.471Z,25.48
2018-05-24T16:23:32.280Z,25.44
2018-05-24T16:26:01.042Z,25.39
2018-05-24T16:28:29.630Z,25.39
2018-05-24T16:30:57.265Z,25.40
2018-05-24T16:33:24.797Z,25.40
2018-05-24T16:35:52.356Z,25.41
2018-05-24T16:38:20.379Z,25.42
2018-05-24T16:40:47.919Z,25.30
2018-05-24T16:43:15.712Z,25.29
2018-05-24T16:45:43.579Z,25.27
2018-05-24T16:48:11.208Z,25.27
2018-05-24T16:50:38.741Z,25.25
2018-05-24T16:53:06.309Z,25.21
2018-05-24T16:55:33.831Z,25.21
2018-05-24T16:58:01.454Z,25.17
2018-05-24T17:00:29.020Z,25.15
2018-05-24T17:02:56.539Z,25.11
2018-05-24T17:05:24.129Z,25.13
2018-05-24T17:07:51.660Z,25.08
2018-05-24T17:10:19.255Z,25.10
2018-05-24T17:12:46.797Z,25.11
2018-05-24T17:15:14.394Z,25.09
2018-05-24T17:17:42.033Z,25.07
2018-05-24T17:20:09.599Z,25.07
2018-05-24T17:22:37.140Z,25.02
2018-05-24T17:25:05.240Z,24.97
2018-05-24T17:27:32.772Z,24.91
2018-05-24T17:30:00.311Z,24.85
2018-05-24T17:32:27.860Z,24.84
2018-05-24T17:34:55.396Z,24.87
2018-05-24T17:37:23.367Z,24.82
2018-05-24T17:39:50.998Z,24.81
2018-05-24T17:42:18.561Z,24.79
2018-05-24T17:44:46.093Z,24.77
2018-05-24T17:47:13.615Z,24.72
2018-05-24T17:49:41.236Z,24.73
2018-05-24T17:52:08.795Z,24.71
2018-05-24T17:54:36.359Z,24.68
2018-05-24T17:57:03.918Z,24.65
2018-05-24T17:59:31.444Z,24.61
2018-05-24T18:01:59.144Z,24.58
2018-05-24T18:04:26.672Z,24.56
2018-05-24T18:06:54.187Z,24.55
2018-05-24T18:09:21.815Z,24.55
2018-05-24T18:11:49.351Z,24.47
2018-05-24T18:14:16.904Z,24.46
2018-05-24T18:16:44.432Z,24.44
2018-05-24T18:19:12.169Z,24.39
2018-05-24T18:21:39.824Z,24.37
2018-05-24T18:24:07.352Z,24.29
2018-05-24T18:26:34.948Z,24.25
2018-05-24T18:29:02.483Z,24.26
2018-05-24T18:31:30.065Z,24.24
2018-05-24T18:33:57.592Z,24.18
2018-05-24T18:36:25.158Z,24.20
2018-05-24T18:38:52.718Z,24.16
2018-05-24T18:41:20.232Z,24.11
2018-05-24T18:43:47.764Z,24.08
2018-05-24T18:46:15.312Z,24.07
2018-05-24T18:48:42.845Z,24.05
2018-05-24T18:51:10.449Z,23.98
2018-05-24T18:53:37.973Z,23.93
2018-05-24T18:56:05.809Z,23.93
2018-05-24T18:58:33.433Z,23.93
2018-05-24T19:01:00.996Z,23.83
2018-05-24T19:03:28.516Z,23.81
2018-05-24T19:05:56.045Z,23.82
2018-05-24T19:08:23.671Z,23.78
2018-05-24T19:10:51.195Z,23.74
2018-05-24T19:13:18.893Z,23.68
2018-05-24T19:15:46.711Z,23.69
2018-05-24T19:18:14.319Z,23.65
2018-05-24T19:20:41.849Z,23.60
2018-05-24T19:23:09.439Z,23.55
2018-05-24T19:25:36.969Z,23.57
2018-05-24T19:28:04.564Z,23.50
2018-05-24T19:30:32.162Z,23.48
2018-05-24T19:32:59.782Z,23.43
2018-05-24T19:35:27.524Z,23.35
2018-05-24T19:37:55.118Z,23.30
2018-05-24T19:40:22.651Z,23.28
2018-05-24T19:42:50.267Z,23.27
2018-05-24T19:45:17.889Z,23.26
2018-05-24T19:47:45.419Z,23.21
2018-05-24T19:50:12.943Z,23.15
2018-05-24T19:52:40.468Z,23.13
2018-05-24T19:55:08.031Z,23.10
2018-05-24T19:57:36.360Z,23.09
2018-05-24T20:00:03.905Z,23.09
2018-05-24T20:02:31.437Z,23.08
2018-05-24T20:04:58.990Z,22.99
2018-05-24T20:07:26.651Z,22.97
2018-05-24T20:09:54.248Z,22.94
2018-05-24T20:12:21.801Z,22.92
2018-05-24T20:14:49.511Z,22.86
2018-05-24T20:17:17.088Z,22.85
2018-05-24T20:19:44.660Z,22.81
2018-05-24T20:22:12.206Z,22.76
2018-05-24T20:24:39.768Z,22.75
2018-05-24T20:27:07.360Z,22.73
2018-05-24T20:29:35.045Z,22.71
2018-05-24T20:32:02.668Z,22.66
2018-05-24T20:34:30.221Z,22.61
2018-05-24T20:36:57.775Z,22.53
2018-05-24T20:39:25.362Z,22.48
2018-05-24T20:41:52.919Z,22.52
2018-05-24T20:44:20.468Z,22.42
2018-05-24T20:46:48.029Z,22.35
2018-05-24T20:49:15.591Z,22.27
2018-05-24T20:51:43.246Z,22.29
2018-05-24T20:54:10.803Z,22.27
2018-05-24T20:56:38.359Z,22.26
2018-05-24T20:59:05.936Z,22.14
2018-05-24T21:01:33.480Z,22.13
2018-05-24T21:04:01.065Z,22.00
2018-05-24T21:06:28.730Z,22.02
2018-05-24T21:08:56.287Z,21.94
2018-05-24T21:11:23.844Z,21.97
2018-05-24T21:13:51.412Z,21.77
2018-05-24T21:16:19.012Z,21.81
2018-05-24T21:18:46.556Z,21.70
2018-05-24T21:21:14.137Z,21.69
2018-05-24T21:23:41.696Z,21.69
2018-05-24T21:26:09.255Z,21.63
2018-05-24T21:28:36.860Z,21.59
2018-05-24T21:31:04.651Z,21.55
2018-05-24T21:33:32.214Z,21.58
2018-05-24T21:35:59.777Z,21.51
2018-05-24T21:38:27.343Z,21.53
2018-05-24T21:40:54.921Z,21.49
2018-05-24T21:43:22.487Z,21.44
2018-05-24T21:45:50.063Z,21.42
2018-05-24T21:48:17.639Z,21.36
2018-05-24T21:50:45.356Z,21.33
2018-05-24T21:53:12.944Z,21.35
2018-05-24T21:55:40.510Z,21.31
2018-05-24T21:58:08.109Z,21.32
2018-05-24T22:00:35.668Z,21.22
2018-05-24T22:03:03.233Z,21.18
2018-05-24T22:05:31.658Z,21.18
2018-05-24T22:07:59.619Z,21.19
2018-05-24T22:10:27.240Z,21.14
2018-05-24T22:12:54.792Z,21.13
2018-05-24T22:15:22.365Z,21.08
2018-05-24T22:17:49.959Z,21.01
2018-05-24T22:20:17.519Z,21.05
2018-05-24T22:22:45.144Z,21.01
2018-05-24T22:25:12.721Z,21.01
2018-05-24T22:27:40.337Z,20.93
2018-05-24T22:30:08.001Z,20.95
2018-05-24T22:32:35.684Z,20.90
2018-05-24T22:35:03.338Z,20.86
2018-05-24T22:37:30.946Z,20.80
2018-05-24T22:39:58.508Z,20.76
2018-05-24T22:42:26.135Z,20.73
2018-05-24T22:44:53.688Z,20.72
2018-05-24T22:47:21.245Z,20.68
2018-05-24T22:49:48.807Z,20.69
2018-05-24T22:52:16.473Z,20.68
2018-05-24T22:54:44.029Z,20.65
2018-05-24T22:57:11.700Z,20.69
2018-05-24T22:59:39.307Z,20.66
2018-05-24T23:02:06.965Z,20.64
2018-05-24T23:04:34.529Z,20.62
2018-05-24T23:07:02.137Z,20.62
2018-05-24T23:09:29.707Z,20.51
2018-05-24T23:11:57.307Z,20.51
2018-05-24T23:14:25.335Z,20.54
2018-05-24T23:16:52.876Z,20.45
2018-05-24T23:19:20.427Z,20.46
2018-05-24T23:21:47.993Z,20.39
2018-05-24T23:24:15.719Z,20.39
2018-05-24T23:26:43.259Z,20.41
2018-05-24T23:29:10.929Z,20.29
2018-05-24T23:31:38.480Z,20.26
2018-05-24T23:34:06.116Z,20.27
2018-05-24T23:36:33.727Z,20.19
2018-05-24T23:39:01.380Z,20.21
2018-05-24T23:41:28.928Z,20.17
2018-05-24T23:43:56.569Z,20.13
2018-05-24T23:46:24.131Z,20.08
2018-05-24T23:48:51.735Z,20.11
2018-05-24T23:51:19.292Z,20.06
2018-05-24T23:53:46.857Z,20.06
2018-05-24T23:56:14.412Z,20.05
2018-05-24T23:58:41.972Z,20.04
